WADD Airport Information

Runway Information
Runway 09 Length 9790 ft width 148 ft
Elevation 11 ft Threshold 0 ft Heading 88
Runway 27 Length 9790 ft Width 148 ft
Elevation 12 ft Threshold 0 ft Heading 268
Airport Frequencies
Type APP Name DIRECTOR Frequency 119.7 MHZ
Type ATIS Name ATIS Frequency 126.2 MHZ
Type GND Name NGURAH GND Frequency 118.8 MHZ
Type INFO Name INFO Frequency 8.88 MHZ
Type TMA Name RADAR Frequency 119.3 MHZ
Type TWR Name NGURAH TWR Frequency 118.1 MHZ
Airport Navaids
Type VOR-DME Name Bali Frequency 116200 KHZ
Type NDB Name Bali Frequency 230 KHZ
Airport Weather Information & NOTAM
ADDS - METARS form results

(2246 UTC 27 November 2021)
Data provider http://aviationweather.gov/metar/data/
 
METAR text: WADD 272230Z VRB02KT 9999 BKN016 26/25 Q1008 NOSIG
Conditions at: WADD (BALI INTL , ID) observed 2230 UTC 27 November 2021
Temperature: 26.0°C (79°F)
Dewpoint: 25.0°C (77°F) [RH = 94%]
Pressure (altimeter): 29.76 inches Hg (1008.0 mb)
Winds: variable direction winds at 2 MPH (2 knots; 1.0 m/s)
Visibility: 6 or more miles (10+ km)
Ceiling: 1600 feet AGL
Clouds: broken clouds at 1600 feet AGL
Weather: no significant weather observed at this time

METAR text: WADD 272200Z 26003KT 9999 SCT016 26/25 Q1008 NOSIG
Conditions at: WADD (BALI INTL , ID) observed 2200 UTC 27 November 2021
Temperature: 26.0°C (79°F)
Dewpoint: 25.0°C (77°F) [RH = 94%]
Pressure (altimeter): 29.76 inches Hg (1008.0 mb)
Winds: from the W (260 degrees) at 3 MPH (3 knots; 1.5 m/s)
Visibility: 6 or more miles (10+ km)
Ceiling: at least 12,000 feet AGL
Clouds: scattered clouds at 1600 feet AGL
Weather: no significant weather observed at this time

Forecast for: WADD (BALI INTL , ID)
Text: TAF WADD 271700Z 2718/2818 27010KT 9999 SCT016
Forecast period: 1800 UTC 27 November 2021 to 1800 UTC 28 November 2021
Forecast type: FROM: standard forecast or significant change
Winds: from the W (270 degrees) at 12 MPH (10 knots; 5.1 m/s)
Visibility: 6 or more miles (10+ km)
Ceiling: at least 12,000 feet AGL
Clouds: scattered clouds at 1600 feet AGL
Weather: no significant weather forecast for this period
Text: TEMPO 2718/2722 VRB05KT 5000 TSRA FEW014CB BKN014
Forecast period: 1800 to 2200 UTC 27 November 2021
Forecast type: TEMPORARY: The following changes expected for less than half the time period
Winds: variable direction winds at 6 MPH (5 knots; 2.6 m/s)
Visibility: 3 miles (5 km)
Ceiling: 1400 feet AGL
Clouds: few clouds at 1400 feet AGL
broken clouds at 1400 feet AGL
Weather: TSRA  (rain associated with thunderstorm(s))
Text: TEMPO 2800/2804 5000 TSRA FEW014CB BKN015
Forecast period: 0000 to 0400 UTC 28 November 2021
Forecast type: TEMPORARY: The following changes expected for less than half the time period
Visibility: 3 miles (5 km)
Ceiling: 1500 feet AGL
Clouds: few clouds at 1400 feet AGL
broken clouds at 1500 feet AGL
Weather: TSRA  (rain associated with thunderstorm(s))